sensor_id;sensor_type;location;lat;lon;timestamp;temperature;humidity
13848;DHT22;6994;49.752;6.094;2024-01-07T00:01:55;4.40;99.90
13848;DHT22;6994;49.752;6.094;2024-01-07T00:04:22;4.40;99.90
13848;DHT22;6994;49.752;6.094;2024-01-07T00:06:49;4.40;99.90
13848;DHT22;6994;49.752;6.094;2024-01-07T00:09:17;4.50;99.90
13848;DHT22;6994;49.752;6.094;2024-01-07T00:11:44;4.60;99.90
13848;DHT22;6994;49.752;6.094;2024-01-07T00:14:11;4.60;99.90
13848;DHT22;6994;49.752;6.094;2024-01-07T00:16:39;4.60;99.90
13848;DHT22;6994;49.752;6.094;2024-01-07T00:19:05;4.60;99.90
13848;DHT22;6994;49.752;6.094;2024-01-07T00:21:33;4.50;99.90
13848;DHT22;6994;49.752;6.094;2024-01-07T00:24:00;4.70;99.90
13848;DHT22;6994;49.752;6.094;2024-01-07T00:26:27;4.70;99.90
13848;DHT22;6994;49.752;6.094;2024-01-07T00:28:54;4.70;99.90
13848;DHT22;6994;49.752;6.094;2024-01-07T00:31:24;4.60;99.90
13848;DHT22;6994;49.752;6.094;2024-01-07T00:33:51;4.60;99.90
13848;DHT22;6994;49.752;6.094;2024-01-07T00:36:19;4.50;99.90
13848;DHT22;6994;49.752;6.094;2024-01-07T00:38:47;4.50;99.90
13848;DHT22;6994;49.752;6.094;2024-01-07T00:41:15;4.50;99.90
13848;DHT22;6994;49.752;6.094;2024-01-07T00:43:43;4.40;99.90
13848;DHT22;6994;49.752;6.094;2024-01-07T00:46:10;4.40;99.90
13848;DHT22;6994;49.752;6.094;2024-01-07T00:48:38;4.40;99.90
13848;DHT22;6994;49.752;6.094;2024-01-07T00:51:06;4.40;99.90
13848;DHT22;6994;49.752;6.094;2024-01-07T00:53:33;4.40;99.90
13848;DHT22;6994;49.752;6.094;2024-01-07T00:56:00;4.40;99.90
13848;DHT22;6994;49.752;6.094;2024-01-07T00:58:28;4.40;99.90
13848;DHT22;6994;49.752;6.094;2024-01-07T01:00:55;4.40;99.90
13848;DHT22;6994;49.752;6.094;2024-01-07T01:03:22;4.40;99.90
13848;DHT22;6994;49.752;6.094;2024-01-07T01:05:50;4.40;99.90
13848;DHT22;6994;49.752;6.094;2024-01-07T01:08:18;4.40;99.90
13848;DHT22;6994;49.752;6.094;2024-01-07T01:10:46;4.40;99.90
13848;DHT22;6994;49.752;6.094;2024-01-07T01:13:13;4.40;99.90
13848;DHT22;6994;49.752;6.094;2024-01-07T01:15:40;4.40;99.90
13848;DHT22;6994;49.752;6.094;2024-01-07T01:18:07;4.40;99.90
13848;DHT22;6994;49.752;6.094;2024-01-07T01:20:34;4.40;99.90
13848;DHT22;6994;49.752;6.094;2024-01-07T01:23:02;4.40;99.90
13848;DHT22;6994;49.752;6.094;2024-01-07T01:25:29;4.40;99.90
13848;DHT22;6994;49.752;6.094;2024-01-07T01:27:56;4.40;99.90
13848;DHT22;6994;49.752;6.094;2024-01-07T01:30:23;4.30;99.90
13848;DHT22;6994;49.752;6.094;2024-01-07T01:32:50;4.30;99.90
13848;DHT22;6994;49.752;6.094;2024-01-07T01:35:18;4.30;99.90
13848;DHT22;6994;49.752;6.094;2024-01-07T01:37:46;4.30;99.90
13848;DHT22;6994;49.752;6.094;2024-01-07T01:40:13;4.30;99.90
13848;DHT22;6994;49.752;6.094;2024-01-07T01:42:42;4.30;99.90
13848;DHT22;6994;49.752;6.094;2024-01-07T01:45:07;4.30;99.90
13848;DHT22;6994;49.752;6.094;2024-01-07T01:47:34;4.30;99.90
13848;DHT22;6994;49.752;6.094;2024-01-07T01:50:03;4.30;99.90
13848;DHT22;6994;49.752;6.094;2024-01-07T01:52:30;4.30;99.90
13848;DHT22;6994;49.752;6.094;2024-01-07T01:54:58;4.30;99.90
13848;DHT22;6994;49.752;6.094;2024-01-07T01:57:28;4.20;99.90
13848;DHT22;6994;49.752;6.094;2024-01-07T01:59:53;4.30;99.90
13848;DHT22;6994;49.752;6.094;2024-01-07T02:02:20;4.30;99.90
13848;DHT22;6994;49.752;6.094;2024-01-07T02:04:47;4.20;99.90
13848;DHT22;6994;49.752;6.094;2024-01-07T02:07:14;4.20;99.90
13848;DHT22;6994;49.752;6.094;2024-01-07T02:09:42;4.20;99.90
13848;DHT22;6994;49.752;6.094;2024-01-07T02:12:09;4.30;99.90
13848;DHT22;6994;49.752;6.094;2024-01-07T02:14:36;4.30;99.90
13848;DHT22;6994;49.752;6.094;2024-01-07T02:17:03;4.30;99.90
13848;DHT22;6994;49.752;6.094;2024-01-07T02:19:30;4.20;99.90
13848;DHT22;6994;49.752;6.094;2024-01-07T02:21:58;4.20;99.90
13848;DHT22;6994;49.752;6.094;2024-01-07T02:24:25;4.30;99.90
13848;DHT22;6994;49.752;6.094;2024-01-07T02:26:52;4.20;99.90
13848;DHT22;6994;49.752;6.094;2024-01-07T02:29:19;4.30;99.90
13848;DHT22;6994;49.752;6.094;2024-01-07T02:31:46;4.30;99.90
13848;DHT22;6994;49.752;6.094;2024-01-07T02:34:14;4.30;99.90
13848;DHT22;6994;49.752;6.094;2024-01-07T02:36:41;4.20;99.90
13848;DHT22;6994;49.752;6.094;2024-01-07T02:39:08;4.30;99.90
13848;DHT22;6994;49.752;6.094;2024-01-07T02:41:35;4.20;99.90
13848;DHT22;6994;49.752;6.094;2024-01-07T02:44:02;4.20;99.90
13848;DHT22;6994;49.752;6.094;2024-01-07T02:46:30;4.20;99.90
13848;DHT22;6994;49.752;6.094;2024-01-07T02:48:57;4.20;99.90
13848;DHT22;6994;49.752;6.094;2024-01-07T02:51:24;4.20;99.90
13848;DHT22;6994;49.752;6.094;2024-01-07T02:53:51;4.20;99.90
13848;DHT22;6994;49.752;6.094;2024-01-07T02:56:18;4.20;99.90
13848;DHT22;6994;49.752;6.094;2024-01-07T02:58:46;4.20;99.90
13848;DHT22;6994;49.752;6.094;2024-01-07T03:01:13;4.20;99.90
13848;DHT22;6994;49.752;6.094;2024-01-07T03:03:40;4.20;99.90
13848;DHT22;6994;49.752;6.094;2024-01-07T03:06:07;4.20;99.90
13848;DHT22;6994;49.752;6.094;2024-01-07T03:08:34;4.20;99.90
13848;DHT22;6994;49.752;6.094;2024-01-07T03:11:05;4.20;99.90
13848;DHT22;6994;49.752;6.094;2024-01-07T03:13:32;4.20;99.90
13848;DHT22;6994;49.752;6.094;2024-01-07T03:15:59;4.40;99.90
13848;DHT22;6994;49.752;6.094;2024-01-07T03:18:27;4.50;99.90
13848;DHT22;6994;49.752;6.094;2024-01-07T03:20:53;4.50;99.90
13848;DHT22;6994;49.752;6.094;2024-01-07T03:23:21;4.40;99.90
13848;DHT22;6994;49.752;6.094;2024-01-07T03:25:48;4.40;99.90
13848;DHT22;6994;49.752;6.094;2024-01-07T03:28:15;4.30;99.90
13848;DHT22;6994;49.752;6.094;2024-01-07T03:30:42;4.30;99.90
13848;DHT22;6994;49.752;6.094;2024-01-07T03:33:09;4.30;99.90
13848;DHT22;6994;49.752;6.094;2024-01-07T03:35:37;4.30;99.90
13848;DHT22;6994;49.752;6.094;2024-01-07T03:38:04;4.30;99.90
13848;DHT22;6994;49.752;6.094;2024-01-07T03:40:31;4.20;99.90
13848;DHT22;6994;49.752;6.094;2024-01-07T03:42:58;4.20;99.90
13848;DHT22;6994;49.752;6.094;2024-01-07T03:45:25;4.20;99.90
13848;DHT22;6994;49.752;6.094;2024-01-07T03:47:53;4.20;99.90
13848;DHT22;6994;49.752;6.094;2024-01-07T03:50:20;4.20;99.90
13848;DHT22;6994;49.752;6.094;2024-01-07T03:52:47;4.10;99.90
13848;DHT22;6994;49.752;6.094;2024-01-07T03:55:14;4.10;99.90
13848;DHT22;6994;49.752;6.094;2024-01-07T03:57:41;4.10;99.90
13848;DHT22;6994;49.752;6.094;2024-01-07T04:00:09;4.10;99.90
13848;DHT22;6994;49.752;6.094;2024-01-07T04:02:36;4.10;99.90
13848;DHT22;6994;49.752;6.094;2024-01-07T04:05:03;4.10;99.90
13848;DHT22;6994;49.752;6.094;2024-01-07T04:07:30;4.10;99.90
13848;DHT22;6994;49.752;6.094;2024-01-07T04:09:58;4.10;99.90
13848;DHT22;6994;49.752;6.094;2024-01-07T04:12:26;4.00;99.90
13848;DHT22;6994;49.752;6.094;2024-01-07T04:14:54;4.00;99.90
13848;DHT22;6994;49.752;6.094;2024-01-07T04:17:21;4.00;99.90
13848;DHT22;6994;49.752;6.094;2024-01-07T04:19:49;4.00;99.90
13848;DHT22;6994;49.752;6.094;2024-01-07T04:22:16;4.00;99.90
13848;DHT22;6994;49.752;6.094;2024-01-07T04:24:43;4.00;99.90
13848;DHT22;6994;49.752;6.094;2024-01-07T04:27:10;4.00;99.90
13848;DHT22;6994;49.752;6.094;2024-01-07T04:29:37;4.00;99.90
13848;DHT22;6994;49.752;6.094;2024-01-07T04:32:05;3.90;99.90
13848;DHT22;6994;49.752;6.094;2024-01-07T04:34:32;4.00;99.90
13848;DHT22;6994;49.752;6.094;2024-01-07T04:37:00;3.90;99.90
13848;DHT22;6994;49.752;6.094;2024-01-07T04:39:27;3.90;99.90
13848;DHT22;6994;49.752;6.094;2024-01-07T04:41:54;3.90;99.90
13848;DHT22;6994;49.752;6.094;2024-01-07T04:44:21;3.90;99.90
13848;DHT22;6994;49.752;6.094;2024-01-07T04:46:49;3.90;99.90
13848;DHT22;6994;49.752;6.094;2024-01-07T04:49:16;3.90;99.90
13848;DHT22;6994;49.752;6.094;2024-01-07T04:51:43;3.90;99.90
13848;DHT22;6994;49.752;6.094;2024-01-07T04:54:10;3.90;99.90
13848;DHT22;6994;49.752;6.094;2024-01-07T04:56:37;3.90;99.90
13848;DHT22;6994;49.752;6.094;2024-01-07T04:59:05;3.90;99.90
13848;DHT22;6994;49.752;6.094;2024-01-07T05:01:35;3.90;99.90
13848;DHT22;6994;49.752;6.094;2024-01-07T05:04:02;3.90;99.90
13848;DHT22;6994;49.752;6.094;2024-01-07T05:06:29;4.10;99.90
13848;DHT22;6994;49.752;6.094;2024-01-07T05:08:56;4.20;99.90
13848;DHT22;6994;49.752;6.094;2024-01-07T05:11:23;4.40;99.90
13848;DHT22;6994;49.752;6.094;2024-01-07T05:13:51;4.40;99.90
13848;DHT22;6994;49.752;6.094;2024-01-07T05:16:21;4.60;99.90
13848;DHT22;6994;49.752;6.094;2024-01-07T05:18:48;4.60;99.90
13848;DHT22;6994;49.752;6.094;2024-01-07T05:21:15;4.70;99.90
13848;DHT22;6994;49.752;6.094;2024-01-07T05:23:42;4.90;99.90
13848;DHT22;6994;49.752;6.094;2024-01-07T05:26:09;4.90;99.90
13848;DHT22;6994;49.752;6.094;2024-01-07T05:28:37;4.70;99.90
13848;DHT22;6994;49.752;6.094;2024-01-07T05:31:04;4.50;99.90
13848;DHT22;6994;49.752;6.094;2024-01-07T05:33:31;4.60;99.90
13848;DHT22;6994;49.752;6.094;2024-01-07T05:35:58;4.60;99.90
13848;DHT22;6994;49.752;6.094;2024-01-07T05:38:25;4.50;99.90
13848;DHT22;6994;49.752;6.094;2024-01-07T05:40:53;4.40;99.90
13848;DHT22;6994;49.752;6.094;2024-01-07T05:43:20;4.60;99.90
13848;DHT22;6994;49.752;6.094;2024-01-07T05:45:47;4.50;99.90
13848;DHT22;6994;49.752;6.094;2024-01-07T05:48:14;4.50;99.90
13848;DHT22;6994;49.752;6.094;2024-01-07T05:50:41;4.40;99.90
13848;DHT22;6994;49.752;6.094;2024-01-07T05:53:09;4.30;99.90
13848;DHT22;6994;49.752;6.094;2024-01-07T05:55:36;4.20;99.90
13848;DHT22;6994;49.752;6.094;2024-01-07T05:58:03;4.10;99.90
13848;DHT22;6994;49.752;6.094;2024-01-07T06:00:30;4.10;99.90
13848;DHT22;6994;49.752;6.094;2024-01-07T06:02:57;4.10;99.90
13848;DHT22;6994;49.752;6.094;2024-01-07T06:05:25;4.00;99.90
13848;DHT22;6994;49.752;6.094;2024-01-07T06:07:52;4.20;99.90
13848;DHT22;6994;49.752;6.094;2024-01-07T06:10:19;4.30;99.90
13848;DHT22;6994;49.752;6.094;2024-01-07T06:12:46;4.30;99.90
13848;DHT22;6994;49.752;6.094;2024-01-07T06:15:13;4.30;99.90
13848;DHT22;6994;49.752;6.094;2024-01-07T06:17:41;4.40;99.90
13848;DHT22;6994;49.752;6.094;2024-01-07T06:20:08;4.40;99.90
13848;DHT22;6994;49.752;6.094;2024-01-07T06:22:35;4.30;99.90
13848;DHT22;6994;49.752;6.094;2024-01-07T06:25:04;4.20;99.90
13848;DHT22;6994;49.752;6.094;2024-01-07T06:27:30;4.20;99.90
13848;DHT22;6994;49.752;6.094;2024-01-07T06:29:58;4.10;99.90
13848;DHT22;6994;49.752;6.094;2024-01-07T06:32:25;4.10;99.90
13848;DHT22;6994;49.752;6.094;2024-01-07T06:34:53;4.00;99.90
13848;DHT22;6994;49.752;6.094;2024-01-07T06:37:20;4.00;99.90
13848;DHT22;6994;49.752;6.094;2024-01-07T06:39:47;4.00;99.90
13848;DHT22;6994;49.752;6.094;2024-01-07T06:42:14;4.00;99.90
13848;DHT22;6994;49.752;6.094;2024-01-07T06:44:42;3.90;99.90
13848;DHT22;6994;49.752;6.094;2024-01-07T06:47:10;3.90;99.90
13848;DHT22;6994;49.752;6.094;2024-01-07T06:49:38;3.90;99.90
13848;DHT22;6994;49.752;6.094;2024-01-07T06:52:06;3.90;99.90
13848;DHT22;6994;49.752;6.094;2024-01-07T06:54:33;3.90;99.90
13848;DHT22;6994;49.752;6.094;2024-01-07T06:57:00;3.90;99.90
13848;DHT22;6994;49.752;6.094;2024-01-07T06:59:27;3.90;99.90
13848;DHT22;6994;49.752;6.094;2024-01-07T07:01:54;3.80;99.90
13848;DHT22;6994;49.752;6.094;2024-01-07T07:04:22;3.90;99.90
13848;DHT22;6994;49.752;6.094;2024-01-07T07:06:49;3.80;99.90
13848;DHT22;6994;49.752;6.094;2024-01-07T07:09:16;3.90;99.90
13848;DHT22;6994;49.752;6.094;2024-01-07T07:11:43;3.80;99.90
13848;DHT22;6994;49.752;6.094;2024-01-07T07:14:10;3.80;99.90
13848;DHT22;6994;49.752;6.094;2024-01-07T07:16:38;3.80;99.90
13848;DHT22;6994;49.752;6.094;2024-01-07T07:19:05;3.80;99.90
13848;DHT22;6994;49.752;6.094;2024-01-07T07:21:32;3.80;99.90
13848;DHT22;6994;49.752;6.094;2024-01-07T07:23:59;3.80;99.90
13848;DHT22;6994;49.752;6.094;2024-01-07T07:26:26;3.80;99.90
13848;DHT22;6994;49.752;6.094;2024-01-07T07:28:54;3.80;99.90
13848;DHT22;6994;49.752;6.094;2024-01-07T07:31:21;3.80;99.90
13848;DHT22;6994;49.752;6.094;2024-01-07T07:33:48;3.90;99.90
13848;DHT22;6994;49.752;6.094;2024-01-07T07:36:15;3.90;99.90
13848;DHT22;6994;49.752;6.094;2024-01-07T07:38:42;3.90;99.90
13848;DHT22;6994;49.752;6.094;2024-01-07T07:41:10;3.90;99.90
13848;DHT22;6994;49.752;6.094;2024-01-07T07:43:37;3.90;99.90
13848;DHT22;6994;49.752;6.094;2024-01-07T07:46:04;3.90;99.90
13848;DHT22;6994;49.752;6.094;2024-01-07T07:48:31;3.90;99.90
13848;DHT22;6994;49.752;6.094;2024-01-07T07:50:58;3.90;99.90
13848;DHT22;6994;49.752;6.094;2024-01-07T07:53:26;3.90;99.90
13848;DHT22;6994;49.752;6.094;2024-01-07T07:55:53;3.90;99.90
13848;DHT22;6994;49.752;6.094;2024-01-07T07:58:20;3.90;99.90
13848;DHT22;6994;49.752;6.094;2024-01-07T08:00:47;3.90;99.90
13848;DHT22;6994;49.752;6.094;2024-01-07T08:03:14;3.90;99.90
13848;DHT22;6994;49.752;6.094;2024-01-07T08:05:42;3.90;99.90
13848;DHT22;6994;49.752;6.094;2024-01-07T08:08:09;3.90;99.90
13848;DHT22;6994;49.752;6.094;2024-01-07T08:10:36;3.90;99.90
13848;DHT22;6994;49.752;6.094;2024-01-07T08:13:03;4.00;99.90
13848;DHT22;6994;49.752;6.094;2024-01-07T08:15:30;4.00;99.90
13848;DHT22;6994;49.752;6.094;2024-01-07T08:17:58;4.00;99.90
13848;DHT22;6994;49.752;6.094;2024-01-07T08:20:25;4.00;99.90
13848;DHT22;6994;49.752;6.094;2024-01-07T08:22:52;4.10;99.90
13848;DHT22;6994;49.752;6.094;2024-01-07T08:25:19;4.10;99.90
13848;DHT22;6994;49.752;6.094;2024-01-07T08:27:46;4.10;99.90
13848;DHT22;6994;49.752;6.094;2024-01-07T08:30:14;4.10;99.90
13848;DHT22;6994;49.752;6.094;2024-01-07T08:32:41;4.10;99.90
13848;DHT22;6994;49.752;6.094;2024-01-07T08:35:08;4.20;99.90
13848;DHT22;6994;49.752;6.094;2024-01-07T08:37:35;4.20;99.90
13848;DHT22;6994;49.752;6.094;2024-01-07T08:40:02;4.30;99.90
13848;DHT22;6994;49.752;6.094;2024-01-07T08:42:30;4.30;99.90
13848;DHT22;6994;49.752;6.094;2024-01-07T08:44:58;4.30;99.90
13848;DHT22;6994;49.752;6.094;2024-01-07T08:47:25;4.30;99.90
13848;DHT22;6994;49.752;6.094;2024-01-07T08:49:52;4.30;99.90
13848;DHT22;6994;49.752;6.094;2024-01-07T08:52:19;4.30;99.90
13848;DHT22;6994;49.752;6.094;2024-01-07T08:54:46;4.30;99.90
13848;DHT22;6994;49.752;6.094;2024-01-07T08:57:14;4.30;99.90
13848;DHT22;6994;49.752;6.094;2024-01-07T08:59:41;4.30;99.90
13848;DHT22;6994;49.752;6.094;2024-01-07T09:02:08;4.40;99.90
13848;DHT22;6994;49.752;6.094;2024-01-07T09:04:35;4.30;99.90
13848;DHT22;6994;49.752;6.094;2024-01-07T09:07:03;4.30;99.90
13848;DHT22;6994;49.752;6.094;2024-01-07T09:09:30;4.30;99.90
13848;DHT22;6994;49.752;6.094;2024-01-07T09:11:58;4.30;99.90
13848;DHT22;6994;49.752;6.094;2024-01-07T09:14:25;4.40;99.90
13848;DHT22;6994;49.752;6.094;2024-01-07T09:16:52;4.40;99.90
13848;DHT22;6994;49.752;6.094;2024-01-07T09:19:19;4.40;99.90
13848;DHT22;6994;49.752;6.094;2024-01-07T09:21:46;4.40;99.90
13848;DHT22;6994;49.752;6.094;2024-01-07T09:24:14;4.50;99.90
13848;DHT22;6994;49.752;6.094;2024-01-07T09:26:41;4.50;99.90
13848;DHT22;6994;49.752;6.094;2024-01-07T09:29:08;4.50;99.90
13848;DHT22;6994;49.752;6.094;2024-01-07T09:31:35;4.50;99.90
13848;DHT22;6994;49.752;6.094;2024-01-07T09:34:02;4.60;99.90
13848;DHT22;6994;49.752;6.094;2024-01-07T09:36:30;4.60;99.90
13848;DHT22;6994;49.752;6.094;2024-01-07T09:38:57;4.70;99.90
13848;DHT22;6994;49.752;6.094;2024-01-07T09:41:24;4.70;99.90
13848;DHT22;6994;49.752;6.094;2024-01-07T09:43:51;4.70;99.90
13848;DHT22;6994;49.752;6.094;2024-01-07T09:46:21;4.70;99.90
13848;DHT22;6994;49.752;6.094;2024-01-07T09:48:48;4.70;99.90
13848;DHT22;6994;49.752;6.094;2024-01-07T09:51:15;4.70;99.90
13848;DHT22;6994;49.752;6.094;2024-01-07T09:53:43;4.70;99.90
13848;DHT22;6994;49.752;6.094;2024-01-07T09:56:19;4.70;99.90
13848;DHT22;6994;49.752;6.094;2024-01-07T09:58:46;4.80;99.90
13848;DHT22;6994;49.752;6.094;2024-01-07T10:01:19;5.00;99.90
13848;DHT22;6994;49.752;6.094;2024-01-07T10:03:46;5.00;99.90
13848;DHT22;6994;49.752;6.094;2024-01-07T10:06:13;5.00;99.90
13848;DHT22;6994;49.752;6.094;2024-01-07T10:08:40;4.90;99.90
13848;DHT22;6994;49.752;6.094;2024-01-07T10:11:08;4.90;99.90
13848;DHT22;6994;49.752;6.094;2024-01-07T10:13:35;4.80;99.90
13848;DHT22;6994;49.752;6.094;2024-01-07T10:16:02;4.80;99.90
13848;DHT22;6994;49.752;6.094;2024-01-07T10:18:30;4.80;99.90
13848;DHT22;6994;49.752;6.094;2024-01-07T10:21:01;4.80;99.90
13848;DHT22;6994;49.752;6.094;2024-01-07T10:23:24;4.70;99.90
13848;DHT22;6994;49.752;6.094;2024-01-07T10:25:51;4.70;99.90
13848;DHT22;6994;49.752;6.094;2024-01-07T10:28:18;4.70;99.90
13848;DHT22;6994;49.752;6.094;2024-01-07T10:30:48;4.70;99.90
13848;DHT22;6994;49.752;6.094;2024-01-07T10:33:16;4.60;99.90
13848;DHT22;6994;49.752;6.094;2024-01-07T10:35:42;4.60;99.90
13848;DHT22;6994;49.752;6.094;2024-01-07T10:38:09;4.60;99.90
13848;DHT22;6994;49.752;6.094;2024-01-07T10:40:37;4.60;99.90
13848;DHT22;6994;49.752;6.094;2024-01-07T10:43:04;4.60;99.90
13848;DHT22;6994;49.752;6.094;2024-01-07T10:45:31;4.60;99.90
13848;DHT22;6994;49.752;6.094;2024-01-07T10:47:59;4.70;99.90
13848;DHT22;6994;49.752;6.094;2024-01-07T10:50:26;4.70;99.90
13848;DHT22;6994;49.752;6.094;2024-01-07T10:52:57;4.70;99.90
13848;DHT22;6994;49.752;6.094;2024-01-07T10:55:20;4.70;99.90
13848;DHT22;6994;49.752;6.094;2024-01-07T10:57:47;4.70;99.90
13848;DHT22;6994;49.752;6.094;2024-01-07T11:00:14;4.70;99.90
13848;DHT22;6994;49.752;6.094;2024-01-07T11:05:31;5.30;99.90
13848;DHT22;6994;49.752;6.094;2024-01-07T11:10:50;5.20;99.90
13848;DHT22;6994;49.752;6.094;2024-01-07T11:13:34;5.40;99.90
13848;DHT22;6994;49.752;6.094;2024-01-07T11:16:07;5.40;99.90
13848;DHT22;6994;49.752;6.094;2024-01-07T11:18:40;5.30;99.90
13848;DHT22;6994;49.752;6.094;2024-01-07T11:21:07;5.20;99.90
13848;DHT22;6994;49.752;6.094;2024-01-07T11:23:35;5.20;99.90
13848;DHT22;6994;49.752;6.094;2024-01-07T11:26:01;5.10;99.90
13848;DHT22;6994;49.752;6.094;2024-01-07T11:31:14;5.20;99.90
13848;DHT22;6994;49.752;6.094;2024-01-07T11:33:44;5.20;99.90
13848;DHT22;6994;49.752;6.094;2024-01-07T11:36:11;5.20;99.90
13848;DHT22;6994;49.752;6.094;2024-01-07T11:38:38;5.10;99.90
13848;DHT22;6994;49.752;6.094;2024-01-07T11:41:05;5.10;99.90
13848;DHT22;6994;49.752;6.094;2024-01-07T11:43:32;5.30;99.90
13848;DHT22;6994;49.752;6.094;2024-01-07T11:46:02;5.40;99.90
13848;DHT22;6994;49.752;6.094;2024-01-07T11:48:29;5.40;99.90
13848;DHT22;6994;49.752;6.094;2024-01-07T11:50:57;5.40;99.90
13848;DHT22;6994;49.752;6.094;2024-01-07T11:53:24;5.30;99.90
13848;DHT22;6994;49.752;6.094;2024-01-07T11:55:51;5.30;99.90
13848;DHT22;6994;49.752;6.094;2024-01-07T11:58:18;5.20;99.90
13848;DHT22;6994;49.752;6.094;2024-01-07T12:00:45;5.10;99.90
13848;DHT22;6994;49.752;6.094;2024-01-07T12:03:13;5.10;99.90
13848;DHT22;6994;49.752;6.094;2024-01-07T12:05:40;5.00;99.90
13848;DHT22;6994;49.752;6.094;2024-01-07T12:08:07;5.00;99.90
13848;DHT22;6994;49.752;6.094;2024-01-07T12:10:34;5.00;99.90
13848;DHT22;6994;49.752;6.094;2024-01-07T12:13:01;5.00;99.90
13848;DHT22;6994;49.752;6.094;2024-01-07T12:15:29;4.90;99.90
13848;DHT22;6994;49.752;6.094;2024-01-07T12:17:58;4.90;99.90
13848;DHT22;6994;49.752;6.094;2024-01-07T12:20:27;5.10;99.90
13848;DHT22;6994;49.752;6.094;2024-01-07T12:23:04;5.30;99.90
13848;DHT22;6994;49.752;6.094;2024-01-07T12:25:25;5.40;99.90
13848;DHT22;6994;49.752;6.094;2024-01-07T12:27:52;5.40;99.90
13848;DHT22;6994;49.752;6.094;2024-01-07T12:30:19;5.30;99.90
13848;DHT22;6994;49.752;6.094;2024-01-07T12:32:46;5.10;99.90
13848;DHT22;6994;49.752;6.094;2024-01-07T12:35:13;5.00;99.90
13848;DHT22;6994;49.752;6.094;2024-01-07T12:37:41;4.90;99.90
13848;DHT22;6994;49.752;6.094;2024-01-07T12:40:08;4.80;99.90
13848;DHT22;6994;49.752;6.094;2024-01-07T12:42:35;4.80;99.90
13848;DHT22;6994;49.752;6.094;2024-01-07T12:45:02;4.70;99.90
13848;DHT22;6994;49.752;6.094;2024-01-07T12:47:29;4.90;99.90
13848;DHT22;6994;49.752;6.094;2024-01-07T12:49:57;5.00;99.90
13848;DHT22;6994;49.752;6.094;2024-01-07T12:52:24;5.30;99.90
13848;DHT22;6994;49.752;6.094;2024-01-07T12:54:51;5.40;99.90
13848;DHT22;6994;49.752;6.094;2024-01-07T12:57:18;5.60;99.90
13848;DHT22;6994;49.752;6.094;2024-01-07T12:59:45;5.60;99.90
13848;DHT22;6994;49.752;6.094;2024-01-07T13:02:13;5.80;99.90
13848;DHT22;6994;49.752;6.094;2024-01-07T13:04:40;5.70;99.90
13848;DHT22;6994;49.752;6.094;2024-01-07T13:07:07;5.90;99.90
13848;DHT22;6994;49.752;6.094;2024-01-07T13:09:34;5.80;99.90
13848;DHT22;6994;49.752;6.094;2024-01-07T13:12:01;5.60;99.90
13848;DHT22;6994;49.752;6.094;2024-01-07T13:14:29;5.50;99.90
13848;DHT22;6994;49.752;6.094;2024-01-07T13:16:56;5.30;99.90
13848;DHT22;6994;49.752;6.094;2024-01-07T13:19:23;5.20;99.90
13848;DHT22;6994;49.752;6.094;2024-01-07T13:21:50;5.20;99.90
13848;DHT22;6994;49.752;6.094;2024-01-07T13:24:17;5.10;99.90
13848;DHT22;6994;49.752;6.094;2024-01-07T13:26:45;5.10;99.90
13848;DHT22;6994;49.752;6.094;2024-01-07T13:29:12;5.00;99.90
13848;DHT22;6994;49.752;6.094;2024-01-07T13:31:39;5.20;99.90
13848;DHT22;6994;49.752;6.094;2024-01-07T13:34:06;5.30;99.90
13848;DHT22;6994;49.752;6.094;2024-01-07T13:36:33;5.40;99.90
13848;DHT22;6994;49.752;6.094;2024-01-07T13:39:01;5.40;99.90
13848;DHT22;6994;49.752;6.094;2024-01-07T13:41:28;5.50;99.90
13848;DHT22;6994;49.752;6.094;2024-01-07T13:43:59;5.40;99.90
13848;DHT22;6994;49.752;6.094;2024-01-07T13:46:25;5.20;99.90
13848;DHT22;6994;49.752;6.094;2024-01-07T13:48:52;5.10;99.90
13848;DHT22;6994;49.752;6.094;2024-01-07T13:51:19;5.00;99.90
13848;DHT22;6994;49.752;6.094;2024-01-07T13:53:47;4.90;99.90
13848;DHT22;6994;49.752;6.094;2024-01-07T13:56:14;4.80;99.90
13848;DHT22;6994;49.752;6.094;2024-01-07T13:58:41;4.70;99.90
13848;DHT22;6994;49.752;6.094;2024-01-07T14:01:08;4.70;99.90
13848;DHT22;6994;49.752;6.094;2024-01-07T14:03:35;4.60;99.90
13848;DHT22;6994;49.752;6.094;2024-01-07T14:06:03;4.60;99.90
13848;DHT22;6994;49.752;6.094;2024-01-07T14:08:30;4.50;99.90
13848;DHT22;6994;49.752;6.094;2024-01-07T14:10:57;4.50;99.90
13848;DHT22;6994;49.752;6.094;2024-01-07T14:13:24;4.40;99.90
13848;DHT22;6994;49.752;6.094;2024-01-07T14:15:51;4.40;99.90
13848;DHT22;6994;49.752;6.094;2024-01-07T14:18:19;4.40;99.90
13848;DHT22;6994;49.752;6.094;2024-01-07T14:20:46;4.40;99.90
13848;DHT22;6994;49.752;6.094;2024-01-07T14:23:13;4.30;99.90
13848;DHT22;6994;49.752;6.094;2024-01-07T14:25:40;4.30;99.90
13848;DHT22;6994;49.752;6.094;2024-01-07T14:28:07;4.40;99.90
13848;DHT22;6994;49.752;6.094;2024-01-07T14:30:35;4.50;99.90
13848;DHT22;6994;49.752;6.094;2024-01-07T14:33:02;4.50;99.90
13848;DHT22;6994;49.752;6.094;2024-01-07T14:35:29;4.40;99.90
13848;DHT22;6994;49.752;6.094;2024-01-07T14:37:59;4.40;99.90
13848;DHT22;6994;49.752;6.094;2024-01-07T14:40:26;4.40;99.90
13848;DHT22;6994;49.752;6.094;2024-01-07T14:42:53;4.30;99.90
13848;DHT22;6994;49.752;6.094;2024-01-07T14:45:20;4.50;99.90
13848;DHT22;6994;49.752;6.094;2024-01-07T14:47:48;4.60;99.90
13848;DHT22;6994;49.752;6.094;2024-01-07T14:50:15;4.60;99.90
13848;DHT22;6994;49.752;6.094;2024-01-07T14:52:42;4.50;99.90
13848;DHT22;6994;49.752;6.094;2024-01-07T14:55:09;4.50;99.90
13848;DHT22;6994;49.752;6.094;2024-01-07T14:57:36;4.40;99.90
13848;DHT22;6994;49.752;6.094;2024-01-07T15:00:04;4.60;99.90
13848;DHT22;6994;49.752;6.094;2024-01-07T15:02:31;4.60;99.90
13848;DHT22;6994;49.752;6.094;2024-01-07T15:04:58;4.60;99.90
13848;DHT22;6994;49.752;6.094;2024-01-07T15:07:25;4.50;99.90
13848;DHT22;6994;49.752;6.094;2024-01-07T15:09:53;4.40;99.90
13848;DHT22;6994;49.752;6.094;2024-01-07T15:12:20;4.30;99.90
13848;DHT22;6994;49.752;6.094;2024-01-07T15:14:47;4.20;99.90
13848;DHT22;6994;49.752;6.094;2024-01-07T15:17:14;4.20;99.90
13848;DHT22;6994;49.752;6.094;2024-01-07T15:19:41;4.10;99.90
13848;DHT22;6994;49.752;6.094;2024-01-07T15:22:09;4.10;99.90
13848;DHT22;6994;49.752;6.094;2024-01-07T15:24:36;4.00;99.90
13848;DHT22;6994;49.752;6.094;2024-01-07T15:27:03;4.00;99.90
13848;DHT22;6994;49.752;6.094;2024-01-07T15:29:31;4.00;99.90
13848;DHT22;6994;49.752;6.094;2024-01-07T15:31:59;3.90;99.90
13848;DHT22;6994;49.752;6.094;2024-01-07T15:34:26;3.90;99.90
13848;DHT22;6994;49.752;6.094;2024-01-07T15:36:53;3.90;99.90
13848;DHT22;6994;49.752;6.094;2024-01-07T15:39:21;3.90;99.90
13848;DHT22;6994;49.752;6.094;2024-01-07T15:41:48;3.90;99.90
13848;DHT22;6994;49.752;6.094;2024-01-07T15:44:15;3.80;99.90
13848;DHT22;6994;49.752;6.094;2024-01-07T15:46:42;3.80;99.90
13848;DHT22;6994;49.752;6.094;2024-01-07T15:49:09;3.80;99.90
13848;DHT22;6994;49.752;6.094;2024-01-07T15:51:37;3.70;99.90
13848;DHT22;6994;49.752;6.094;2024-01-07T15:54:04;3.70;99.90
13848;DHT22;6994;49.752;6.094;2024-01-07T15:56:31;3.70;99.90
13848;DHT22;6994;49.752;6.094;2024-01-07T15:58:58;3.70;99.90
13848;DHT22;6994;49.752;6.094;2024-01-07T16:01:25;3.70;99.90
13848;DHT22;6994;49.752;6.094;2024-01-07T16:03:53;3.90;99.90
13848;DHT22;6994;49.752;6.094;2024-01-07T16:06:20;4.00;99.90
13848;DHT22;6994;49.752;6.094;2024-01-07T16:08:47;3.90;99.90
13848;DHT22;6994;49.752;6.094;2024-01-07T16:11:14;4.10;99.90